Impacts METAR Board
IDs:

KBOS - Boston/Logan Intl, MA, US

Updated at: 0000 UTC 24 Jun 2018
Potential Impact None Slight Moderate High
Time 23/12Z 23/13Z 23/14Z 23/15Z 23/16Z 23/17Z 23/18Z 23/19Z 23/20Z 23/21Z 23/22Z 23/23Z 24/00Z
Temp63 64 64 63 63 64 63 60 63 62 61 60 60
Dewpt56 55 55 57 57 56 57 55 55 56 56 57 58
Altim30.00 29.99 29.99 29.97 29.96 29.94 29.92 29.90 29.88 29.86 29.85 29.85 29.84
VIS10 10 10 10 10 10 8 3 10 4 4 1.5 1.5
CIG100 90 70 70 70 28 23 12 17 18 12 6 5
CoverOVCOVCOVCOVCOVCOVCOVCOVCOVCOVCOVCOVCOVC
FltCatVFRVFRVFRVFRVFRMVFRMVFRMVFRMVFRMVFRMVFRIFRIFR
WX-------------RA-DZ---DZ-DZ-DZ BR-DZ BR
WDir70609090707070706050503040
WSpd10 7 12 12 12 8 10 11 11 11 11 8 8
WGst-- -- -- -- -- -- -- -- -- -- -- -- --
Raw hourly METARs
KBOS 231154Z 07010KT 10SM FEW070 BKN100 OVC180 17/13 A3000 RMK AO2 RAB19E41 SLP157 P0000 60000 T01720133 10178 20161 58006
KBOS 231254Z 06007KT 10SM FEW060 BKN090 OVC180 18/13 A2999 RMK AO2 SLP155 T01780128
KBOS 231354Z 09012KT 10SM BKN070 BKN110 OVC180 18/13 A2999 RMK AO2 RAB37E46 SLP154 P0000 T01780128
KBOS 231454Z 09012KT 10SM SCT049 BKN070 OVC150 17/14 A2997 RMK AO2 SLP149 60000 T01720139 58008
KBOS 231554Z 07012KT 10SM FEW025 SCT040 BKN070 OVC140 17/14 A2996 RMK AO2 SLP143 T01720139
KBOS 231654Z 07008KT 10SM FEW012 BKN028 OVC070 18/13 A2994 RMK AO2 SLP138 T01780133
KBOS 231754Z 07010KT 8SM -RA FEW008 SCT013 OVC023 17/14 A2992 RMK AO2 SLP132 DZB20E35RAB35 P0000 60000 T01720139 10183 20167 58017
KBOS 231854Z 07011KT 3SM -DZ OVC012 16/13 A2990 RMK AO2 RAE1755DZB47 SLP125 P0000 T01560128
KBOS 231954Z 06011KT 10SM FEW006 OVC017 17/13 A2988 RMK AO2 DZE13 SLP117 P0000 T01720128
KBOS 232054Z 05011KT 4SM -DZ FEW007 SCT011 OVC018 17/13 A2986 RMK AO2 DZB44 SLP112 P0000 60000 T01670133 56020
KBOS 232154Z 05011KT 4SM -DZ FEW006 BKN012 OVC018 16/13 A2985 RMK AO2 DZE10B44 SLP108 P0000 T01610133
KBOS 232254Z 03008KT 1 1/2SM -DZ BR BKN006 OVC012 16/14 A2985 RMK AO2 SLP107 P0000 T01560139
KBOS 232354Z 04008KT 1 1/2SM -DZ BR BKN005 OVC012 16/14 A2984 RMK AO2 SLP104 P0000 60000 T01560144 10172 20156 56008



Page loaded:  00:59 UTC  |   05:59 PM Pacific  |   06:59 PM Mountain  |   07:59 PM Central  |   08:59 PM Eastern

 

ADVISORIES

FORECASTS

FORECASTS

OBSERVATIONS

USER TOOLS

ABOUT US